Dike, Iowa
Current Conditions -  °F | °C
As of 8:54 AM on Friday 24 Oct 2014 (Local Time) from KALO Reporting Station
Moderate Fog Moderate Fog  
Wind Chill: 44°   Ceiling: 200
Heat Index: 47°   Visibility: 0.25mi
Dew Point: 47°   Wind: 7mph
Humidity: 100%   Direction: 160°SSE
Pressure: 29.98"   Gusts: NA
Location:  42.46°N, 92.63°W
Report Text: KALO 241354Z AUTO 16006KT 1/4SM R12/1600V1800FT FG OVC002 08/08 A2998 RMK AO2 SLP158 T00830083
Loading
Personal Weather Stations






























Interactive Weather Map
Tropical Storm Tracking
New forecast layout! Learn more

10-Day Weather Forecast

Advertisements
Track Severe Weather on mobile